Time;durP1;ratioP1;P1;durP2;ratioP2;P2;SDS_P1;SDS_P2;PMS_P1;PMS_P2;Temp;Humidity;BMP_temperature;BMP_pressure;BME280_temperature;BME280_humidity;BME280_pressure;Samples;Min_cycle;Max_cycle;Signal;HPM_P1;HPM_P2
2021/12/24 00:01:45;;;;;;;38.30;19.53;;;7.40;1.00;;;;;;5051184;28;20209;-60
2021/12/24 00:04:13;;;;;;;38.57;19.47;;;7.40;1.00;;;;;;5050302;28;20214;-57
2021/12/24 00:06:39;;;;;;;41.00;20.67;;;7.40;1.00;;;;;;5049976;28;20635;-59
2021/12/24 00:09:07;;;;;;;33.67;18.47;;;7.40;1.00;;;;;;5049886;28;20209;-59
2021/12/24 00:11:35;;;;;;;38.53;20.60;;;7.50;1.00;;;;;;5050282;28;20206;-60
2021/12/24 00:14:04;;;;;;;38.03;19.27;;;7.40;1.00;;;;;;5050465;28;20210;-62
2021/12/24 00:16:38;;;;;;;36.47;19.77;;;7.40;1.00;;;;;;5050230;28;20209;-60
2021/12/24 00:19:16;;;;;;;32.20;16.93;;;7.50;1.00;;;;;;5050474;28;20201;-62
2021/12/24 00:22:22;;;;;;;32.57;18.30;;;7.50;1.00;;;;;;5050047;28;20288;-59
2021/12/24 00:35:46;;;;;;;35.30;18.50;;;7.60;1.00;;;;;;5049756;28;20224;-60
2021/12/24 00:38:14;;;;;;;34.60;18.90;;;7.60;1.00;;;;;;5049524;28;20233;-61
2021/12/24 00:40:43;;;;;;;27.23;14.00;;;7.60;1.00;;;;;;5049887;28;20671;-59
2021/12/24 00:43:10;;;;;;;34.27;18.67;;;7.60;1.00;;;;;;5053719;28;20292;-61
2021/12/24 00:45:40;;;;;;;30.53;15.70;;;7.60;1.00;;;;;;5053734;28;20275;-61
2021/12/24 00:48:08;;;;;;;28.20;15.27;;;7.60;1.00;;;;;;5053375;28;20313;-61
2021/12/24 00:50:49;;;;;;;38.40;18.90;;;7.60;1.00;;;;;;5054235;28;20630;-62
2021/12/24 00:56:16;;;;;;;28.33;16.63;;;7.60;1.00;;;;;;5011803;28;20305;-61
2021/12/24 00:58:43;;;;;;;30.83;18.23;;;7.60;1.00;;;;;;5044030;28;20237;-60
2021/12/24 01:01:13;;;;;;;29.70;16.97;;;7.70;1.00;;;;;;5052953;28;20206;-60
2021/12/24 01:03:40;;;;;;;33.67;17.97;;;7.70;1.00;;;;;;5052841;28;20244;-62
2021/12/24 01:06:08;;;;;;;26.23;15.90;;;7.70;1.00;;;;;;5049136;28;20256;-62
2021/12/24 01:08:36;;;;;;;20.67;11.33;;;7.70;1.00;;;;;;5053805;28;20230;-61
2021/12/24 01:11:06;;;;;;;27.70;16.00;;;7.70;1.00;;;;;;5053460;28;20206;-61
2021/12/24 01:13:33;;;;;;;19.70;12.30;;;7.70;1.00;;;;;;5053429;28;20210;-61
2021/12/24 01:16:03;;;;;;;24.63;14.37;;;7.70;1.00;;;;;;5052791;28;20210;-59
2021/12/24 01:18:38;;;;;;;20.90;13.37;;;7.70;1.00;;;;;;5052642;28;20225;-60
2021/12/24 01:21:20;;;;;;;24.47;14.30;;;7.70;1.00;;;;;;5053422;28;20209;-59
2021/12/24 01:23:50;;;;;;;24.30;14.87;;;7.70;1.00;;;;;;5052605;28;20214;-60
2021/12/24 01:26:22;;;;;;;21.90;13.53;;;7.70;1.00;;;;;;5052949;28;20237;-61
2021/12/24 01:29:08;;;;;;;25.30;14.67;;;7.70;1.00;;;;;;5052749;28;20226;-62
2021/12/24 01:40:06;;;;;;;21.17;12.93;;;7.70;1.00;;;;;;5052368;28;20220;-60
2021/12/24 01:42:45;;;;;;;21.43;13.17;;;7.70;1.00;;;;;;5052608;28;20210;-62
2021/12/24 01:45:22;;;;;;;22.40;12.80;;;7.70;1.00;;;;;;5052746;28;20236;-62
2021/12/24 01:47:51;;;;;;;27.27;14.20;;;7.70;1.00;;;;;;5051803;28;20228;-58
2021/12/24 01:50:19;;;;;;;24.37;15.00;;;7.80;1.00;;;;;;5052775;28;20784;-60
2021/12/24 01:52:48;;;;;;;25.17;14.70;;;7.80;1.00;;;;;;5051904;28;20217;-62
2021/12/24 01:55:17;;;;;;;25.27;15.23;;;7.80;1.00;;;;;;5052326;28;20275;-62
2021/12/24 01:57:44;;;;;;;21.87;13.20;;;7.80;1.00;;;;;;5051620;28;20715;-61
2021/12/24 02:00:14;;;;;;;24.00;14.67;;;7.80;1.00;;;;;;5052126;28;20214;-62
2021/12/24 02:02:41;;;;;;;26.90;16.03;;;7.80;1.00;;;;;;5051803;28;20213;-62
2021/12/24 02:05:08;;;;;;;25.00;13.97;;;7.80;1.00;;;;;;5052207;28;20210;-62
2021/12/24 02:07:36;;;;;;;21.60;13.20;;;7.80;1.00;;;;;;5052468;28;20230;-60
2021/12/24 02:10:04;;;;;;;23.17;14.17;;;7.80;1.00;;;;;;5052919;28;20679;-63
2021/12/24 02:12:34;;;;;;;26.67;15.30;;;7.80;1.00;;;;;;5052106;28;20628;-62
2021/12/24 02:15:02;;;;;;;22.43;14.20;;;7.80;1.00;;;;;;5052039;28;20210;-59
2021/12/24 02:17:49;;;;;;;23.67;14.73;;;7.80;1.00;;;;;;5052862;28;20229;-60
2021/12/24 02:28:41;;;;;;;29.53;17.60;;;7.80;1.00;;;;;;5051157;28;20259;-62
2021/12/24 02:31:10;;;;;;;33.23;17.53;;;7.90;1.00;;;;;;5050811;28;20561;-61
2021/12/24 02:33:37;;;;;;;27.97;17.20;;;7.90;1.30;;;;;;5051346;28;20629;-63
2021/12/24 02:36:06;;;;;;;31.23;18.97;;;7.90;1.90;;;;;;5051302;28;20279;-62
2021/12/24 02:38:34;;;;;;;36.63;20.83;;;7.90;2.00;;;;;;5051576;28;20324;-62
2021/12/24 02:41:01;;;;;;;36.67;19.60;;;7.90;2.00;;;;;;5052437;28;20212;-61
2021/12/24 02:43:29;;;;;;;36.23;20.87;;;7.90;2.70;;;;;;5051327;28;20264;-62
2021/12/24 02:46:05;;;;;;;31.83;17.63;;;7.90;3.50;;;;;;5051338;28;20201;-62
2021/12/24 02:49:00;;;;;;;36.20;21.13;;;8.00;3.90;;;;;;5051718;28;20566;-61
2021/12/24 02:54:20;;;;;;;40.37;20.83;;;7.90;4.10;;;;;;5013780;28;20211;-60
2021/12/24 02:56:50;;;;;;;37.73;21.43;;;8.00;3.90;;;;;;5051327;28;20206;-62
2021/12/24 02:59:19;;;;;;;33.80;20.27;;;7.90;4.10;;;;;;5051693;28;20232;-62
2021/12/24 03:01:48;;;;;;;39.10;20.67;;;8.00;5.60;;;;;;5051999;28;20205;-62
2021/12/24 03:04:16;;;;;;;31.23;16.60;;;8.00;6.00;;;;;;5050670;28;20201;-62
2021/12/24 03:06:46;;;;;;;36.47;20.33;;;8.00;7.00;;;;;;5051205;28;20803;-60
2021/12/24 03:09:15;;;;;;;31.80;18.70;;;8.00;7.90;;;;;;5050803;28;20248;-61
2021/12/24 03:11:43;;;;;;;29.47;18.10;;;8.00;8.20;;;;;;5051820;28;20218;-60
2021/12/24 03:14:10;;;;;;;33.30;18.17;;;8.00;8.50;;;;;;5051881;28;20213;-62
2021/12/24 03:16:39;;;;;;;26.27;15.63;;;8.00;8.80;;;;;;5051629;28;20216;-61
2021/12/24 03:19:08;;;;;;;30.47;16.63;;;8.00;9.10;;;;;;5051442;28;20799;-59
2021/12/24 03:21:43;;;;;;;31.70;17.83;;;8.00;9.30;;;;;;5050745;28;20591;-62
2021/12/24 03:26:55;;;;;;;29.77;17.37;;;8.00;9.40;;;;;;5050602;28;20327;-61
2021/12/24 03:29:22;;;;;;;25.87;14.50;;;8.00;10.20;;;;;;5050777;28;20209;-61
2021/12/24 03:31:50;;;;;;;32.60;18.00;;;8.10;11.00;;;;;;5051380;28;20203;-60
2021/12/24 03:34:19;;;;;;;32.83;18.17;;;8.00;10.80;;;;;;5051383;28;20643;-61
2021/12/24 03:36:46;;;;;;;32.27;18.57;;;8.10;11.30;;;;;;5050096;28;20213;-61
2021/12/24 03:39:15;;;;;;;31.37;18.03;;;8.10;11.40;;;;;;5051607;28;20648;-61
2021/12/24 03:41:43;;;;;;;22.63;12.63;;;8.00;10.60;;;;;;5051107;28;20205;-62
2021/12/24 03:44:12;;;;;;;31.57;18.30;;;8.10;11.00;;;;;;5051301;28;20225;-60
2021/12/24 03:46:48;;;;;;;32.60;18.40;;;8.00;10.20;;;;;;5051110;28;20241;-58
2021/12/24 03:49:20;;;;;;;38.63;21.70;;;8.00;10.50;;;;;;5051106;28;20205;-60
2021/12/24 03:51:53;;;;;;;34.63;20.90;;;8.10;11.40;;;;;;5050943;28;20214;-58
2021/12/24 03:57:06;;;;;;;44.00;24.93;;;8.00;11.30;;;;;;5050648;28;20286;-60
2021/12/24 03:59:33;;;;;;;46.60;24.47;;;8.10;12.50;;;;;;5050720;28;20598;-62
2021/12/24 04:02:00;;;;;;;38.27;20.60;;;8.10;12.50;;;;;;5050524;28;20809;-59
2021/12/24 04:04:27;;;;;;;42.07;22.77;;;8.10;13.00;;;;;;5050628;28;20213;-60
2021/12/24 04:06:54;;;;;;;45.90;24.63;;;8.10;12.80;;;;;;5050554;28;20202;-57
2021/12/24 04:09:25;;;;;;;43.63;23.30;;;8.10;13.00;;;;;;5050222;28;20214;-61
2021/12/24 04:11:51;;;;;;;43.10;23.60;;;8.10;13.40;;;;;;5050425;28;20198;-60
2021/12/24 04:14:18;;;;;;;41.73;25.53;;;8.10;13.40;;;;;;5050941;28;20263;-60
2021/12/24 04:16:45;;;;;;;44.97;23.60;;;8.10;13.00;;;;;;5052504;28;20255;-61
2021/12/24 04:24:50;;;;;;;43.53;21.57;;;8.10;12.80;;;;;;5053321;28;20764;-60
2021/12/24 04:25:09;;;;;;;43.20;25.03;;;8.10;12.70;;;;;;5054539;28;20204;-58
2021/12/24 04:27:36;;;;;;;43.00;24.93;;;8.10;12.00;;;;;;5054496;28;20226;-61
2021/12/24 04:30:09;;;;;;;44.60;24.47;;;8.10;12.30;;;;;;5054131;28;20233;-59
2021/12/24 04:32:50;;;;;;;39.70;22.83;;;8.10;12.00;;;;;;5054968;28;20206;-61
2021/12/24 04:35:31;;;;;;;43.00;23.80;;;8.10;12.40;;;;;;5054536;28;20280;-60
2021/12/24 04:38:23;;;;;;;50.17;25.27;;;8.10;12.20;;;;;;5053830;28;20225;-60
2021/12/24 04:51:55;;;;;;;44.67;25.73;;;8.10;11.60;;;;;;5054628;28;20240;-59
2021/12/24 05:02:57;;;;;;;53.13;28.77;;;8.20;9.70;;;;;;5054479;28;20211;-62
2021/12/24 05:05:27;;;;;;;54.93;28.50;;;8.20;9.50;;;;;;5055219;28;20616;-60
2021/12/24 05:10:51;;;;;;;49.73;27.50;;;8.20;8.90;;;;;;5054661;28;20207;-60
2021/12/24 05:13:22;;;;;;;39.77;21.83;;;8.20;8.20;;;;;;5054244;28;20209;-59
2021/12/24 05:15:54;;;;;;;52.10;28.50;;;8.20;8.00;;;;;;5054183;28;20206;-59
2021/12/24 05:18:36;;;;;;;53.83;28.47;;;8.10;8.20;;;;;;5053672;28;20252;-60
2021/12/24 05:23:47;;;;;;;39.93;21.93;;;8.20;9.50;;;;;;5053956;28;20278;-62
2021/12/24 05:26:14;;;;;;;51.73;26.27;;;8.20;9.70;;;;;;5054077;28;20210;-60
2021/12/24 05:28:42;;;;;;;54.47;29.90;;;8.20;10.20;;;;;;5053212;28;20223;-60
2021/12/24 05:31:09;;;;;;;58.00;28.60;;;8.20;10.40;;;;;;5054210;28;20214;-61
2021/12/24 05:33:36;;;;;;;44.57;22.47;;;8.20;9.90;;;;;;5053942;28;20216;-60
2021/12/24 05:36:03;;;;;;;52.97;28.47;;;8.20;9.50;;;;;;5053693;28;20213;-59
2021/12/24 05:38:30;;;;;;;54.87;29.67;;;8.20;9.50;;;;;;5053858;28;20231;-62
2021/12/24 05:40:57;;;;;;;57.37;30.03;;;8.20;9.50;;;;;;5053587;28;20209;-62
2021/12/24 05:43:23;;;;;;;52.70;28.13;;;8.20;9.60;;;;;;5053677;28;20210;-60
2021/12/24 05:45:51;;;;;;;46.50;23.67;;;8.20;9.80;;;;;;5053393;28;20709;-59
2021/12/24 05:48:18;;;;;;;56.57;30.50;;;8.20;9.30;;;;;;5053681;28;20233;-60
2021/12/24 05:50:45;;;;;;;55.90;28.80;;;8.20;9.20;;;;;;5053676;28;20264;-62
2021/12/24 05:53:12;;;;;;;60.13;30.70;;;8.20;9.10;;;;;;5053466;28;20202;-62
2021/12/24 05:55:39;;;;;;;56.20;27.47;;;8.20;8.80;;;;;;5053552;28;20553;-62
2021/12/24 05:58:07;;;;;;;61.90;29.17;;;8.20;7.80;;;;;;5053150;28;20231;-58
2021/12/24 06:00:38;;;;;;;54.67;28.97;;;8.20;6.50;;;;;;5053441;28;20676;-60
2021/12/24 06:03:07;;;;;;;55.80;27.27;;;8.20;6.50;;;;;;5053420;28;20301;-60
2021/12/24 06:05:34;;;;;;;59.33;29.33;;;8.20;5.50;;;;;;5053803;28;20297;-62
2021/12/24 06:08:01;;;;;;;52.83;27.80;;;8.20;4.20;;;;;;5053734;28;20718;-63
2021/12/24 06:10:28;;;;;;;61.80;30.90;;;8.20;3.00;;;;;;5053109;28;20288;-62
2021/12/24 06:12:55;;;;;;;56.27;28.70;;;8.20;2.70;;;;;;5053457;28;20270;-60
2021/12/24 06:15:24;;;;;;;57.67;30.47;;;8.20;2.90;;;;;;5053681;28;20236;-60
2021/12/24 06:17:52;;;;;;;58.83;30.97;;;8.20;2.30;;;;;;5053226;28;20708;-61
2021/12/24 06:20:22;;;;;;;60.57;28.40;;;8.20;1.00;;;;;;5054119;28;20365;-61
2021/12/24 06:22:49;;;;;;;64.70;30.07;;;8.20;1.00;;;;;;5053157;28;20265;-62
2021/12/24 06:25:16;;;;;;;59.87;29.40;;;8.20;1.00;;;;;;5053047;28;20215;-61
2021/12/24 06:27:43;;;;;;;61.17;31.43;;;8.20;1.00;;;;;;5053644;28;20222;-60
2021/12/24 06:30:11;;;;;;;62.73;30.27;;;8.20;1.00;;;;;;5053186;28;20839;-61
2021/12/24 06:32:38;;;;;;;65.53;32.07;;;8.20;1.00;;;;;;5053238;28;20211;-61
2021/12/24 06:35:08;;;;;;;64.17;30.67;;;8.20;1.00;;;;;;5052946;28;20237;-62
2021/12/24 06:37:37;;;;;;;64.33;33.17;;;8.20;1.00;;;;;;5052230;28;20256;-60
2021/12/24 06:40:06;;;;;;;56.37;29.77;;;8.20;1.00;;;;;;5052281;28;20291;-60
2021/12/24 06:42:32;;;;;;;54.40;27.77;;;8.20;1.00;;;;;;5053090;28;20213;-61
2021/12/24 06:45:01;;;;;;;46.23;21.70;;;8.20;1.00;;;;;;5053752;28;20201;-61
2021/12/24 06:47:27;;;;;;;64.90;30.40;;;8.20;1.00;;;;;;5053019;28;20239;-59
2021/12/24 06:49:54;;;;;;;55.60;27.67;;;8.20;1.00;;;;;;5052457;28;20261;-61
2021/12/24 06:52:21;;;;;;;56.90;30.13;;;8.20;1.00;;;;;;5052222;28;20668;-61
2021/12/24 06:54:49;;;;;;;55.67;28.43;;;8.20;1.00;;;;;;5052423;28;20565;-61
2021/12/24 06:57:18;;;;;;;50.70;27.90;;;8.20;1.00;;;;;;5052401;28;20233;-60
2021/12/24 06:59:45;;;;;;;59.17;29.50;;;8.20;1.00;;;;;;5052105;28;20221;-61
2021/12/24 07:02:12;;;;;;;62.17;29.63;;;8.20;1.00;;;;;;5052560;28;20626;-61
2021/12/24 07:04:38;;;;;;;57.37;28.00;;;8.20;1.00;;;;;;5051847;28;20272;-60
2021/12/24 07:07:05;;;;;;;54.67;27.97;;;8.20;1.00;;;;;;5052465;28;20276;-60
2021/12/24 07:09:32;;;;;;;54.17;26.80;;;8.20;1.00;;;;;;5052402;28;20209;-61
2021/12/24 07:12:00;;;;;;;56.37;29.43;;;8.20;1.00;;;;;;5052323;28;20206;-62
2021/12/24 07:14:27;;;;;;;58.37;27.60;;;8.20;1.00;;;;;;5052276;28;20202;-60
2021/12/24 07:16:53;;;;;;;50.87;27.00;;;8.20;1.00;;;;;;5052130;28;20206;-59
2021/12/24 07:19:20;;;;;;;54.53;28.53;;;8.20;1.00;;;;;;5052268;28;20226;-59
2021/12/24 07:21:47;;;;;;;49.67;24.83;;;8.20;1.00;;;;;;5052365;28;20652;-60
2021/12/24 07:24:13;;;;;;;53.47;26.20;;;8.20;1.00;;;;;;5052270;28;20209;-61
2021/12/24 07:26:40;;;;;;;55.03;26.50;;;8.20;1.00;;;;;;5051824;28;20207;-60
2021/12/24 07:29:09;;;;;;;52.27;26.13;;;8.20;1.00;;;;;;5052460;28;20289;-62
2021/12/24 07:31:35;;;;;;;53.43;28.80;;;8.20;1.00;;;;;;5051749;28;20207;-60
2021/12/24 07:34:02;;;;;;;55.67;25.73;;;8.20;1.00;;;;;;5051656;28;20220;-59
2021/12/24 07:36:29;;;;;;;42.07;19.97;;;8.20;1.00;;;;;;5052015;28;20201;-61
2021/12/24 07:38:56;;;;;;;48.53;23.27;;;8.20;1.00;;;;;;5051575;28;20288;-59
2021/12/24 07:41:24;;;;;;;53.27;24.77;;;8.20;1.00;;;;;;5051770;28;20211;-62
2021/12/24 07:43:51;;;;;;;50.10;24.97;;;8.30;1.00;;;;;;5051653;28;20217;-61
2021/12/24 07:46:20;;;;;;;51.40;25.93;;;8.20;1.00;;;;;;5051954;28;20207;-59
2021/12/24 07:48:49;;;;;;;44.93;24.20;;;8.30;1.00;;;;;;5052244;28;20630;-60
2021/12/24 07:54:00;;;;;;;49.80;24.70;;;8.30;1.00;;;;;;5055771;28;20580;-62
2021/12/24 07:56:28;;;;;;;48.20;23.07;;;8.30;1.00;;;;;;5055648;28;20224;-62
2021/12/24 07:58:55;;;;;;;47.13;23.63;;;8.30;1.00;;;;;;5055409;28;20231;-62
2021/12/24 08:01:24;;;;;;;41.77;20.53;;;8.30;1.00;;;;;;5055401;28;20692;-62
2021/12/24 08:03:52;;;;;;;46.60;24.87;;;8.30;1.00;;;;;;5056131;28;20206;-63
2021/12/24 08:06:19;;;;;;;47.17;24.13;;;8.20;1.00;;;;;;5055344;28;20264;-62
2021/12/24 08:08:46;;;;;;;46.53;24.33;;;8.30;1.00;;;;;;5045819;28;20980;-61
2021/12/24 08:11:13;;;;;;;51.43;25.23;;;8.30;1.00;;;;;;5054501;28;20548;-61
2021/12/24 08:13:39;;;;;;;46.57;24.10;;;8.30;1.00;;;;;;5055124;28;20673;-61
2021/12/24 08:16:06;;;;;;;53.43;24.07;;;8.30;1.00;;;;;;5054950;28;20292;-62
2021/12/24 08:18:34;;;;;;;47.03;24.27;;;8.30;1.00;;;;;;5054868;28;20227;-62
2021/12/24 08:21:01;;;;;;;43.93;22.73;;;8.30;1.00;;;;;;5055006;28;20277;-61
2021/12/24 08:23:28;;;;;;;51.40;23.33;;;8.30;1.00;;;;;;5054711;28;20217;-63
2021/12/24 08:25:58;;;;;;;46.60;22.87;;;8.30;1.00;;;;;;5054426;28;20637;-61
2021/12/24 08:28:25;;;;;;;43.10;22.47;;;8.30;1.00;;;;;;5054722;28;20226;-60
2021/12/24 08:30:52;;;;;;;33.80;16.77;;;8.20;1.00;;;;;;5054560;28;20233;-62
2021/12/24 08:33:19;;;;;;;49.77;22.00;;;8.20;1.00;;;;;;5054754;28;20215;-62
2021/12/24 08:35:47;;;;;;;47.43;21.23;;;8.20;1.00;;;;;;5054715;28;20243;-61
2021/12/24 08:38:13;;;;;;;45.10;22.30;;;8.20;1.00;;;;;;5054271;28;20227;-62
2021/12/24 08:40:40;;;;;;;37.77;20.20;;;8.20;1.00;;;;;;5054899;28;20249;-62
2021/12/24 08:43:07;;;;;;;45.37;21.37;;;8.20;1.00;;;;;;5054817;28;20207;-62
2021/12/24 08:45:33;;;;;;;38.10;20.83;;;8.20;1.00;;;;;;5054797;28;20215;-62
2021/12/24 08:48:00;;;;;;;46.20;19.90;;;8.30;1.00;;;;;;5054325;28;20276;-62
2021/12/24 08:50:27;;;;;;;39.93;19.00;;;8.30;1.00;;;;;;5054813;28;20202;-62
2021/12/24 08:52:55;;;;;;;35.73;18.30;;;8.30;1.00;;;;;;5054423;28;20675;-62
2021/12/24 08:55:21;;;;;;;36.43;18.47;;;8.30;1.00;;;;;;5054833;28;20737;-61
2021/12/24 08:57:48;;;;;;;38.73;20.57;;;8.30;1.00;;;;;;5054192;28;20230;-61
2021/12/24 09:00:15;;;;;;;40.57;18.77;;;8.30;1.00;;;;;;5054540;28;20290;-61
2021/12/24 09:02:42;;;;;;;43.93;19.43;;;8.40;1.00;;;;;;5053718;28;20210;-62
2021/12/24 09:05:13;;;;;;;44.00;18.67;;;8.30;1.00;;;;;;5054889;28;20232;-61
2021/12/24 09:07:41;;;;;;;39.30;19.87;;;8.40;1.00;;;;;;5054160;28;20283;-61
2021/12/24 09:10:10;;;;;;;40.30;20.30;;;8.40;1.00;;;;;;5054583;28;20293;-61
2021/12/24 09:12:37;;;;;;;44.33;19.87;;;8.40;1.00;;;;;;5054335;28;20210;-61
2021/12/24 09:15:05;;;;;;;38.00;20.17;;;8.40;1.00;;;;;;5054306;28;20555;-61
2021/12/24 09:17:32;;;;;;;46.27;20.43;;;8.40;1.00;;;;;;5053788;28;20233;-61
2021/12/24 09:20:00;;;;;;;41.00;20.37;;;8.40;1.00;;;;;;5053931;28;20234;-61
2021/12/24 09:22:31;;;;;;;37.10;20.03;;;8.40;1.00;;;;;;5054478;28;20217;-62
2021/12/24 09:24:58;;;;;;;38.63;18.13;;;8.50;1.00;;;;;;5054320;28;20830;-60
2021/12/24 09:27:26;;;;;;;30.60;17.50;;;8.50;1.00;;;;;;5053610;28;20223;-62
2021/12/24 09:29:53;;;;;;;36.60;17.20;;;8.50;1.00;;;;;;5054001;28;20203;-62
2021/12/24 09:32:20;;;;;;;43.33;20.67;;;8.40;1.00;;;;;;5053884;28;20647;-61
2021/12/24 09:34:47;;;;;;;37.57;19.13;;;8.40;1.00;;;;;;5054123;28;20220;-60
2021/12/24 09:37:14;;;;;;;39.40;20.43;;;8.40;1.00;;;;;;5054071;28;20327;-60
2021/12/24 09:39:41;;;;;;;44.33;20.17;;;8.40;1.00;;;;;;5053861;28;20281;-59
2021/12/24 09:42:09;;;;;;;36.73;19.53;;;8.40;1.00;;;;;;5053765;28;20204;-62
2021/12/24 09:44:37;;;;;;;46.77;20.47;;;8.40;1.00;;;;;;5053669;28;20670;-62
2021/12/24 09:47:04;;;;;;;38.83;20.07;;;8.40;1.00;;;;;;5053744;28;20280;-60
2021/12/24 09:49:31;;;;;;;42.33;19.03;;;8.40;1.00;;;;;;5054617;28;20263;-61
2021/12/24 09:51:59;;;;;;;38.20;20.07;;;8.40;1.00;;;;;;5054006;28;20221;-60
2021/12/24 09:54:26;;;;;;;35.33;19.30;;;8.40;1.00;;;;;;5053565;28;20207;-60
2021/12/24 09:56:55;;;;;;;35.73;18.43;;;8.40;1.00;;;;;;5053138;28;20210;-61
2021/12/24 09:59:23;;;;;;;40.17;18.17;;;8.40;1.00;;;;;;5052910;28;20567;-62
2021/12/24 10:01:55;;;;;;;37.30;19.13;;;8.40;1.00;;;;;;5045591;28;20217;-63
2021/12/24 10:04:25;;;;;;;39.43;19.90;;;8.40;1.00;;;;;;5053438;28;20694;-61
2021/12/24 10:06:53;;;;;;;40.53;20.20;;;8.50;1.00;;;;;;5052716;28;20209;-63
2021/12/24 10:09:21;;;;;;;40.40;18.73;;;8.50;1.00;;;;;;5053001;28;20676;-63
2021/12/24 10:11:51;;;;;;;34.27;17.93;;;8.50;1.00;;;;;;5052525;28;20203;-65
2021/12/24 10:14:20;;;;;;;34.37;18.23;;;8.50;1.00;;;;;;5051838;28;20822;-60
2021/12/24 10:16:49;;;;;;;41.80;18.87;;;8.60;1.00;;;;;;5052608;28;20204;-57
2021/12/24 10:19:19;;;;;;;35.47;17.03;;;8.60;1.00;;;;;;5052902;28;20217;-60
2021/12/24 10:21:48;;;;;;;32.33;16.90;;;8.60;1.00;;;;;;5052437;28;20225;-63
2021/12/24 10:24:17;;;;;;;42.90;17.93;;;8.60;1.00;;;;;;5052438;28;20214;-58
2021/12/24 10:26:47;;;;;;;34.20;18.17;;;8.60;1.00;;;;;;5052420;28;20207;-57
2021/12/24 10:29:16;;;;;;;34.20;17.73;;;8.70;1.00;;;;;;5052839;28;20207;-57
2021/12/24 10:31:45;;;;;;;40.27;17.57;;;8.70;1.00;;;;;;5052201;28;20294;-59
2021/12/24 10:34:19;;;;;;;35.03;17.97;;;8.60;1.00;;;;;;5052361;28;20701;-60
2021/12/24 10:37:09;;;;;;;37.00;17.53;;;8.60;1.00;;;;;;5052230;28;20737;-59
2021/12/24 10:39:43;;;;;;;34.60;17.63;;;8.60;1.00;;;;;;5052520;28;20284;-60
2021/12/24 10:42:13;;;;;;;30.33;15.83;;;8.60;1.00;;;;;;5052329;28;20715;-61
2021/12/24 10:44:41;;;;;;;30.33;15.90;;;8.60;1.00;;;;;;5052681;28;20205;-59
2021/12/24 10:47:13;;;;;;;34.10;17.20;;;8.60;1.00;;;;;;5052104;28;20227;-61
2021/12/24 10:49:59;;;;;;;39.23;16.93;;;8.60;1.00;;;;;;5052009;28;20208;-57
2021/12/24 10:52:46;;;;;;;29.97;16.87;;;8.50;1.00;;;;;;5051760;28;20673;-59
2021/12/24 10:55:16;;;;;;;27.57;15.50;;;8.50;1.00;;;;;;5052160;28;20272;-61
2021/12/24 10:57:46;;;;;;;34.20;15.23;;;8.50;1.00;;;;;;5052150;28;20255;-60
2021/12/24 11:00:23;;;;;;;36.27;16.20;;;8.50;1.00;;;;;;5051734;28;20231;-60
2021/12/24 11:02:53;;;;;;;26.57;13.90;;;8.50;1.00;;;;;;5052245;28;20203;-60
2021/12/24 11:05:43;;;;;;;20.60;12.97;;;8.50;1.00;;;;;;5051606;28;20291;-61
2021/12/24 11:08:12;;;;;;;29.87;14.20;;;8.50;1.00;;;;;;5046207;28;20235;-60
2021/12/24 11:10:41;;;;;;;31.07;14.10;;;8.50;1.00;;;;;;5051500;28;20208;-61
2021/12/24 11:13:11;;;;;;;26.93;13.50;;;8.40;1.00;;;;;;5052405;28;20209;-60
2021/12/24 11:15:41;;;;;;;31.40;14.73;;;8.40;1.00;;;;;;5051080;28;20211;-58
2021/12/24 11:18:12;;;;;;;27.70;14.63;;;8.40;1.00;;;;;;5052089;28;20304;-60
2021/12/24 11:20:40;;;;;;;28.33;14.80;;;8.40;1.00;;;;;;5051070;28;20227;-61
2021/12/24 11:23:11;;;;;;;33.80;15.87;;;8.40;1.00;;;;;;5051732;28;20219;-61
2021/12/24 11:25:40;;;;;;;37.07;16.60;;;8.40;1.00;;;;;;5051653;28;20264;-60
2021/12/24 11:28:08;;;;;;;33.23;16.33;;;8.40;1.00;;;;;;5051713;28;20248;-62
2021/12/24 11:30:41;;;;;;;27.93;15.83;;;8.40;1.00;;;;;;5051447;28;20203;-60
2021/12/24 11:33:08;;;;;;;31.63;14.77;;;8.40;1.00;;;;;;5051359;28;20815;-59
2021/12/24 11:35:37;;;;;;;26.93;12.97;;;8.40;1.00;;;;;;5051348;28;20829;-59
2021/12/24 11:38:03;;;;;;;25.13;13.93;;;8.40;1.00;;;;;;5051692;28;20723;-59
2021/12/24 11:40:32;;;;;;;30.50;13.83;;;8.30;1.00;;;;;;5050973;28;20229;-59
2021/12/24 11:43:03;;;;;;;30.47;14.60;;;8.40;1.00;;;;;;5051340;28;20203;-59
2021/12/24 11:45:34;;;;;;;28.13;13.00;;;8.30;1.00;;;;;;5051103;28;20302;-58
2021/12/24 11:48:02;;;;;;;25.80;12.70;;;8.30;1.00;;;;;;5051074;28;20230;-60
2021/12/24 11:50:29;;;;;;;29.13;12.27;;;8.30;1.00;;;;;;5051118;28;20206;-60
2021/12/24 11:52:58;;;;;;;26.33;12.57;;;8.40;1.00;;;;;;5051384;28;20215;-61
2021/12/24 11:55:27;;;;;;;24.90;12.07;;;8.40;1.00;;;;;;5051493;28;20263;-60
2021/12/24 11:58:00;;;;;;;22.60;13.20;;;8.40;1.00;;;;;;5050971;28;20234;-60
2021/12/24 12:00:31;;;;;;;27.80;14.13;;;8.50;1.00;;;;;;5050721;28;20665;-60
2021/12/24 12:02:58;;;;;;;24.83;13.03;;;8.50;1.00;;;;;;5051667;28;20238;-59
2021/12/24 12:05:32;;;;;;;23.47;12.27;;;8.50;1.00;;;;;;5051932;28;20626;-60
2021/12/24 12:08:32;;;;;;;24.13;11.87;;;8.50;1.00;;;;;;5051311;28;20226;-60
2021/12/24 12:11:01;;;;;;;24.57;11.93;;;8.50;1.00;;;;;;5051170;28;20551;-61
2021/12/24 12:13:48;;;;;;;30.07;12.93;;;8.50;1.00;;;;;;5051274;28;20203;-61
2021/12/24 12:16:18;;;;;;;26.83;13.60;;;8.40;1.00;;;;;;5050733;28;20280;-61
2021/12/24 12:19:00;;;;;;;25.80;11.90;;;8.40;1.00;;;;;;5050787;28;20229;-60
2021/12/24 12:21:36;;;;;;;24.93;12.83;;;8.40;1.00;;;;;;5050505;28;20227;-57
2021/12/24 12:27:02;;;;;;;23.23;13.63;;;8.40;1.00;;;;;;5051162;28;20234;-62
2021/12/24 12:29:43;;;;;;;24.37;13.37;;;8.40;1.00;;;;;;5050985;28;20246;-61
2021/12/24 12:32:28;;;;;;;23.17;13.03;;;8.40;1.00;;;;;;5050908;28;20293;-71
2021/12/24 12:35:01;;;;;;;21.73;13.23;;;8.50;1.00;;;;;;5050864;28;20226;-70
2021/12/24 12:37:40;;;;;;;21.30;10.47;;;8.50;1.00;;;;;;5052400;28;20811;-70
2021/12/24 12:40:29;;;;;;;23.47;14.33;;;8.60;1.00;;;;;;5054358;28;20210;-70
2021/12/24 12:43:06;;;;;;;24.37;14.67;;;8.50;1.00;;;;;;5054643;28;20203;-71
2021/12/24 12:46:01;;;;;;;28.80;14.10;;;8.60;1.00;;;;;;5054256;28;20290;-71
2021/12/24 12:51:03;;;;;;;30.60;15.20;;;8.70;1.00;;;;;;4266943;26;20222;-70
2021/12/24 12:53:31;;;;;;;31.50;15.67;;;8.70;1.00;;;;;;5034522;28;20679;-72
2021/12/24 12:56:19;;;;;;;31.77;17.30;;;8.70;1.00;;;;;;5034563;28;20209;-70
2021/12/24 12:58:58;;;;;;;31.57;16.53;;;8.70;1.00;;;;;;5033995;28;20228;-69
2021/12/24 13:02:18;;;;;;;27.07;13.23;;;8.70;1.00;;;;;;5034194;28;20259;-69
2021/12/24 13:05:14;;;;;;;31.53;15.87;;;8.60;1.00;;;;;;5034649;28;20582;-69
2021/12/24 13:07:42;;;;;;;27.50;15.50;;;8.70;1.00;;;;;;5034119;28;20602;-70
2021/12/24 13:10:12;;;;;;;28.27;16.77;;;8.70;1.00;;;;;;5039794;28;20261;-71
2021/12/24 13:12:39;;;;;;;31.43;16.00;;;8.60;1.00;;;;;;5048248;28;20205;-71
2021/12/24 13:15:15;;;;;;;27.63;14.93;;;8.80;1.00;;;;;;5035551;28;20222;-72
2021/12/24 13:17:44;;;;;;;31.47;15.97;;;8.70;1.00;;;;;;5034398;28;20325;-73
2021/12/24 13:20:17;;;;;;;35.17;15.80;;;8.70;1.00;;;;;;5036653;28;20213;-70
2021/12/24 13:22:42;;;;;;;29.50;15.33;;;8.60;1.00;;;;;;5053963;28;20252;-69
2021/12/24 13:25:13;;;;;;;34.23;17.10;;;8.60;1.00;;;;;;5049464;28;20201;-71
2021/12/24 13:27:44;;;;;;;31.63;15.70;;;8.70;1.00;;;;;;5036623;28;20263;-69
2021/12/24 13:30:31;;;;;;;30.00;16.47;;;8.70;1.00;;;;;;5049106;28;20221;-70
2021/12/24 13:33:01;;;;;;;33.57;18.70;;;8.80;1.00;;;;;;5052437;28;20213;-70
2021/12/24 13:35:37;;;;;;;36.83;17.47;;;8.90;1.00;;;;;;5054047;28;20258;-71
2021/12/24 13:38:04;;;;;;;40.67;17.83;;;8.90;1.00;;;;;;5073346;22;20237;-69
2021/12/24 13:40:34;;;;;;;29.30;15.07;;;9.00;1.00;;;;;;5013374;28;20212;-71
2021/12/24 13:43:06;;;;;;;26.30;13.63;;;8.90;1.00;;;;;;5013956;28;20209;-62
2021/12/24 13:45:36;;;;;;;34.93;17.53;;;8.80;1.00;;;;;;5013685;28;20207;-62
2021/12/24 13:48:11;;;;;;;34.70;19.60;;;8.70;1.00;;;;;;5013427;28;20710;-62
2021/12/24 13:56:18;;;;;;;36.40;17.73;;;8.60;1.00;;;;;;5013133;28;20666;-62
2021/12/24 13:58:50;;;;;;;40.47;18.60;;;8.50;1.00;;;;;;5013334;28;20597;-61
2021/12/24 14:01:16;;;;;;;31.97;17.50;;;8.50;1.00;;;;;;5012797;28;20314;-62
2021/12/24 14:03:49;;;;;;;38.10;19.37;;;8.50;1.00;;;;;;5013540;28;20212;-59
2021/12/24 14:06:16;;;;;;;32.07;16.67;;;8.50;1.00;;;;;;5013198;28;20582;-61
2021/12/24 14:08:42;;;;;;;36.40;16.97;;;8.50;1.00;;;;;;5012696;28;20227;-60
2021/12/24 14:11:12;;;;;;;31.50;17.37;;;8.50;1.00;;;;;;5012757;28;20205;-60
2021/12/24 14:13:44;;;;;;;31.10;17.33;;;8.50;1.00;;;;;;5012754;28;20213;-61
2021/12/24 14:16:32;;;;;;;33.87;17.80;;;8.50;1.00;;;;;;5012874;28;20232;-61
2021/12/24 14:19:15;;;;;;;30.20;17.57;;;8.50;1.00;;;;;;5012746;28;20228;-64
2021/12/24 14:21:46;;;;;;;30.03;16.23;;;8.50;1.00;;;;;;5012595;28;20232;-64
2021/12/24 14:24:16;;;;;;;29.73;17.03;;;8.50;1.00;;;;;;5013495;28;20215;-63